sensor_id;sensor_type;location;lat;lon;timestamp;pressure;altitude;pressure_sealevel;temperature;humidity
59194;BME280;44967;48.598;15.650;2023-02-26T00:00:12;97217.66;;;0.58;68.85
59194;BME280;44967;48.598;15.650;2023-02-26T00:02:43;97225.56;;;0.44;68.10
59194;BME280;44967;48.598;15.650;2023-02-26T00:05:15;97216.94;;;0.41;68.37
59194;BME280;44967;48.598;15.650;2023-02-26T00:07:41;97216.91;;;0.47;69.49
59194;BME280;44967;48.598;15.650;2023-02-26T00:10:09;97220.38;;;0.44;69.42
59194;BME280;44967;48.598;15.650;2023-02-26T00:12:36;97232.56;;;0.38;69.37
59194;BME280;44967;48.598;15.650;2023-02-26T00:15:03;97223.09;;;0.29;70.48
59194;BME280;44967;48.598;15.650;2023-02-26T00:17:31;97236.91;;;0.33;69.24
59194;BME280;44967;48.598;15.650;2023-02-26T00:20:00;97244.69;;;0.39;69.43
59194;BME280;44967;48.598;15.650;2023-02-26T00:22:27;97251.53;;;0.49;69.67
59194;BME280;44967;48.598;15.650;2023-02-26T00:24:53;97258.47;;;0.44;69.23
59194;BME280;44967;48.598;15.650;2023-02-26T00:27:18;97264.59;;;0.38;69.04
59194;BME280;44967;48.598;15.650;2023-02-26T00:29:44;97271.47;;;0.44;68.13
59194;BME280;44967;48.598;15.650;2023-02-26T00:32:11;97279.25;;;0.50;68.48
59194;BME280;44967;48.598;15.650;2023-02-26T00:34:36;97288.72;;;0.56;68.53
59194;BME280;44967;48.598;15.650;2023-02-26T00:37:22;97286.06;;;0.63;69.02
59194;BME280;44967;48.598;15.650;2023-02-26T00:39:58;97282.53;;;0.69;68.60
59194;BME280;44967;48.598;15.650;2023-02-26T00:42:29;97280.84;;;0.66;67.47
59194;BME280;44967;48.598;15.650;2023-02-26T00:44:55;97284.25;;;0.71;67.42
59194;BME280;44967;48.598;15.650;2023-02-26T00:47:30;97292.91;;;0.73;68.08
59194;BME280;44967;48.598;15.650;2023-02-26T00:50:31;97294.53;;;0.83;67.13
59194;BME280;44967;48.598;15.650;2023-02-26T00:53:07;97288.50;;;0.83;68.57
59194;BME280;44967;48.598;15.650;2023-02-26T00:55:37;97283.28;;;0.84;68.11
59194;BME280;44967;48.598;15.650;2023-02-26T00:58:03;97282.44;;;0.82;68.74
59194;BME280;44967;48.598;15.650;2023-02-26T01:00:29;97278.13;;;0.80;69.11
59194;BME280;44967;48.598;15.650;2023-02-26T01:02:55;97288.44;;;0.90;68.45
59194;BME280;44967;48.598;15.650;2023-02-26T01:05:21;97280.66;;;0.87;67.76
59194;BME280;44967;48.598;15.650;2023-02-26T01:07:58;97285.91;;;0.80;68.55
59194;BME280;44967;48.598;15.650;2023-02-26T01:10:27;97286.72;;;0.88;68.65
59194;BME280;44967;48.598;15.650;2023-02-26T01:12:53;97282.34;;;0.91;68.52
59194;BME280;44967;48.598;15.650;2023-02-26T01:15:22;97279.69;;;0.96;69.22
59194;BME280;44967;48.598;15.650;2023-02-26T01:18:03;97278.94;;;0.86;69.12
59194;BME280;44967;48.598;15.650;2023-02-26T01:20:36;97284.06;;;0.92;69.62
59194;BME280;44967;48.598;15.650;2023-02-26T01:23:07;97285.78;;;0.95;69.91
59194;BME280;44967;48.598;15.650;2023-02-26T01:25:53;97287.56;;;0.88;69.42
59194;BME280;44967;48.598;15.650;2023-02-26T01:28:22;97279.91;;;0.73;70.81
59194;BME280;44967;48.598;15.650;2023-02-26T01:30:50;97283.31;;;0.80;70.65
59194;BME280;44967;48.598;15.650;2023-02-26T01:33:40;97283.34;;;0.75;69.66
59194;BME280;44967;48.598;15.650;2023-02-26T01:36:20;97286.84;;;0.71;69.62
59194;BME280;44967;48.598;15.650;2023-02-26T01:38:58;97287.66;;;0.79;70.17
59194;BME280;44967;48.598;15.650;2023-02-26T01:41:29;97285.16;;;0.70;70.10
59194;BME280;44967;48.598;15.650;2023-02-26T01:46:59;97288.53;;;0.78;70.24
59194;BME280;44967;48.598;15.650;2023-02-26T01:49:27;97291.16;;;0.77;70.01
59194;BME280;44967;48.598;15.650;2023-02-26T01:51:54;97284.19;;;0.80;69.97
59194;BME280;44967;48.598;15.650;2023-02-26T01:54:29;97293.72;;;0.81;70.01
59194;BME280;44967;48.598;15.650;2023-02-26T01:59:23;97292.03;;;0.71;71.23
59194;BME280;44967;48.598;15.650;2023-02-26T02:01:51;97301.63;;;0.69;70.30
59194;BME280;44967;48.598;15.650;2023-02-26T02:04:19;97300.72;;;0.73;71.23
59194;BME280;44967;48.598;15.650;2023-02-26T02:06:45;97302.50;;;0.67;70.78
59194;BME280;44967;48.598;15.650;2023-02-26T02:09:11;97305.06;;;0.70;70.46
59194;BME280;44967;48.598;15.650;2023-02-26T02:11:52;97302.47;;;0.70;70.65
59194;BME280;44967;48.598;15.650;2023-02-26T02:14:30;97305.03;;;0.74;70.04
59194;BME280;44967;48.598;15.650;2023-02-26T02:17:17;97311.19;;;0.66;71.17
59194;BME280;44967;48.598;15.650;2023-02-26T02:22:51;97321.53;;;0.69;71.35
59194;BME280;44967;48.598;15.650;2023-02-26T02:31:25;97329.31;;;0.73;71.44
59194;BME280;44967;48.598;15.650;2023-02-26T02:36:50;97328.44;;;0.74;71.34
59194;BME280;44967;48.598;15.650;2023-02-26T02:39:27;97334.44;;;0.79;70.41
59194;BME280;44967;48.598;15.650;2023-02-26T02:42:06;97334.50;;;0.73;71.13
59194;BME280;44967;48.598;15.650;2023-02-26T02:44:37;97327.59;;;0.69;71.09
59194;BME280;44967;48.598;15.650;2023-02-26T02:47:05;97327.56;;;0.72;70.83
59194;BME280;44967;48.598;15.650;2023-02-26T02:49:42;97330.22;;;0.69;70.13
59194;BME280;44967;48.598;15.650;2023-02-26T02:53:07;97333.66;;;0.74;71.03
59194;BME280;44967;48.598;15.650;2023-02-26T02:55:35;97337.09;;;0.73;71.30
59194;BME280;44967;48.598;15.650;2023-02-26T02:58:05;97339.66;;;0.79;71.78
59194;BME280;44967;48.598;15.650;2023-02-26T03:00:35;97347.47;;;0.76;71.05
59194;BME280;44967;48.598;15.650;2023-02-26T03:03:12;97344.84;;;0.82;70.41
59194;BME280;44967;48.598;15.650;2023-02-26T03:05:39;97344.88;;;0.76;70.94
59194;BME280;44967;48.598;15.650;2023-02-26T03:08:08;97348.34;;;0.78;70.79
59194;BME280;44967;48.598;15.650;2023-02-26T03:10:35;97359.53;;;0.89;71.11
59194;BME280;44967;48.598;15.650;2023-02-26T03:13:02;97349.16;;;0.85;70.74
59194;BME280;44967;48.598;15.650;2023-02-26T03:15:45;97346.56;;;0.83;70.51
59194;BME280;44967;48.598;15.650;2023-02-26T03:24:10;97360.44;;;0.79;70.58
59194;BME280;44967;48.598;15.650;2023-02-26T03:26:46;97356.13;;;0.80;70.89
59194;BME280;44967;48.598;15.650;2023-02-26T03:31:55;97363.91;;;0.81;71.19
59194;BME280;44967;48.598;15.650;2023-02-26T03:34:34;97360.50;;;0.75;71.74
59194;BME280;44967;48.598;15.650;2023-02-26T03:37:16;97373.44;;;0.82;71.42
59194;BME280;44967;48.598;15.650;2023-02-26T03:39:49;97379.44;;;0.93;71.23
59194;BME280;44967;48.598;15.650;2023-02-26T03:42:22;97389.84;;;0.93;71.45
59194;BME280;44967;48.598;15.650;2023-02-26T03:44:54;97386.38;;;0.91;70.87
59194;BME280;44967;48.598;15.650;2023-02-26T03:47:22;97385.53;;;0.89;70.90
59194;BME280;44967;48.598;15.650;2023-02-26T03:49:58;97387.22;;;0.92;70.88
59194;BME280;44967;48.598;15.650;2023-02-26T03:52:26;97394.19;;;0.87;71.40
59194;BME280;44967;48.598;15.650;2023-02-26T03:55:12;97399.47;;;0.82;70.93
59194;BME280;44967;48.598;15.650;2023-02-26T03:57:39;97396.06;;;0.68;72.21
59194;BME280;44967;48.598;15.650;2023-02-26T04:00:09;97396.13;;;0.62;71.72
59194;BME280;44967;48.598;15.650;2023-02-26T04:05:17;97398.63;;;0.77;70.84
59194;BME280;44967;48.598;15.650;2023-02-26T04:07:45;97404.69;;;0.73;71.69
59194;BME280;44967;48.598;15.650;2023-02-26T04:10:20;97397.78;;;0.74;71.58
59194;BME280;44967;48.598;15.650;2023-02-26T04:12:49;97405.56;;;0.72;71.15
59194;BME280;44967;48.598;15.650;2023-02-26T04:15:14;97399.53;;;0.69;71.04
59194;BME280;44967;48.598;15.650;2023-02-26T04:17:40;97413.47;;;0.56;71.43
59194;BME280;44967;48.598;15.650;2023-02-26T04:20:06;97407.41;;;0.57;71.30
59194;BME280;44967;48.598;15.650;2023-02-26T04:22:34;97414.31;;;0.56;72.16
59194;BME280;44967;48.598;15.650;2023-02-26T04:24:59;97413.47;;;0.54;71.35
59194;BME280;44967;48.598;15.650;2023-02-26T04:27:25;97416.09;;;0.54;71.14
59194;BME280;44967;48.598;15.650;2023-02-26T04:29:51;97414.28;;;0.64;71.11
59194;BME280;44967;48.598;15.650;2023-02-26T04:32:16;97425.59;;;0.52;71.05
59194;BME280;44967;48.598;15.650;2023-02-26T04:34:42;97423.94;;;0.40;71.28
59194;BME280;44967;48.598;15.650;2023-02-26T04:37:08;97421.25;;;0.59;71.22
59194;BME280;44967;48.598;15.650;2023-02-26T04:39:35;97418.69;;;0.53;70.82
59194;BME280;44967;48.598;15.650;2023-02-26T04:42:01;97426.44;;;0.63;71.32
59194;BME280;44967;48.598;15.650;2023-02-26T04:44:29;97426.41;;;0.66;70.40
59194;BME280;44967;48.598;15.650;2023-02-26T04:46:55;97436.84;;;0.63;71.49
59194;BME280;44967;48.598;15.650;2023-02-26T04:49:22;97445.50;;;0.56;71.11
59194;BME280;44967;48.598;15.650;2023-02-26T04:51:47;97450.72;;;0.59;70.81
59194;BME280;44967;48.598;15.650;2023-02-26T04:54:14;97455.91;;;0.59;70.94
59194;BME280;44967;48.598;15.650;2023-02-26T04:56:39;97450.69;;;0.61;71.04
59194;BME280;44967;48.598;15.650;2023-02-26T04:59:05;97450.69;;;0.67;71.04
59194;BME280;44967;48.598;15.650;2023-02-26T05:01:32;97458.47;;;0.65;71.07
59194;BME280;44967;48.598;15.650;2023-02-26T05:03:57;97457.66;;;0.59;71.16
59194;BME280;44967;48.598;15.650;2023-02-26T05:06:23;97465.44;;;0.63;71.78
59194;BME280;44967;48.598;15.650;2023-02-26T05:08:49;97468.03;;;0.60;71.17
59194;BME280;44967;48.598;15.650;2023-02-26T05:11:15;97462.78;;;0.69;70.87
59194;BME280;44967;48.598;15.650;2023-02-26T05:13:40;97461.03;;;0.71;72.19
59194;BME280;44967;48.598;15.650;2023-02-26T05:16:07;97467.94;;;0.75;71.39
59194;BME280;44967;48.598;15.650;2023-02-26T05:18:32;97467.94;;;0.75;71.66
59194;BME280;44967;48.598;15.650;2023-02-26T05:20:58;97464.50;;;0.67;71.81
59194;BME280;44967;48.598;15.650;2023-02-26T05:23:24;97478.41;;;0.66;72.16
59194;BME280;44967;48.598;15.650;2023-02-26T05:25:50;97482.69;;;0.76;71.81
59194;BME280;44967;48.598;15.650;2023-02-26T05:28:16;97497.41;;;0.77;71.33
59194;BME280;44967;48.598;15.650;2023-02-26T05:30:42;97492.22;;;0.77;71.71
59194;BME280;44967;48.598;15.650;2023-02-26T05:33:08;97490.53;;;0.64;71.97
59194;BME280;44967;48.598;15.650;2023-02-26T05:35:33;97495.72;;;0.70;71.83
59194;BME280;44967;48.598;15.650;2023-02-26T05:37:59;97495.75;;;0.66;72.59
59194;BME280;44967;48.598;15.650;2023-02-26T05:40:25;97500.03;;;0.71;72.44
59194;BME280;44967;48.598;15.650;2023-02-26T05:42:50;97510.38;;;0.80;71.80
59194;BME280;44967;48.598;15.650;2023-02-26T05:45:17;97513.97;;;0.58;71.91
59194;BME280;44967;48.598;15.650;2023-02-26T05:47:42;97530.41;;;0.62;72.69
59194;BME280;44967;48.598;15.650;2023-02-26T05:50:09;97544.28;;;0.61;72.33
59194;BME280;44967;48.598;15.650;2023-02-26T05:52:35;97542.53;;;0.61;72.15
59194;BME280;44967;48.598;15.650;2023-02-26T05:55:01;97546.00;;;0.66;71.86
59194;BME280;44967;48.598;15.650;2023-02-26T05:57:27;97546.00;;;0.65;71.76
59194;BME280;44967;48.598;15.650;2023-02-26T05:59:53;97545.06;;;0.76;71.10
59194;BME280;44967;48.598;15.650;2023-02-26T06:02:18;97558.97;;;0.72;71.45
59194;BME280;44967;48.598;15.650;2023-02-26T06:04:44;97557.25;;;0.67;71.48
59194;BME280;44967;48.598;15.650;2023-02-26T06:07:10;97566.75;;;0.75;71.55
59194;BME280;44967;48.598;15.650;2023-02-26T06:09:35;97575.47;;;0.65;70.46
59194;BME280;44967;48.598;15.650;2023-02-26T06:12:01;97575.44;;;0.74;70.38
59194;BME280;44967;48.598;15.650;2023-02-26T06:14:27;97582.34;;;0.78;70.26
59194;BME280;44967;48.598;15.650;2023-02-26T06:16:52;97586.69;;;0.72;69.12
59194;BME280;44967;48.598;15.650;2023-02-26T06:19:19;97600.59;;;0.71;69.62
59194;BME280;44967;48.598;15.650;2023-02-26T06:21:46;97602.31;;;0.75;70.14
59194;BME280;44967;48.598;15.650;2023-02-26T06:24:12;97609.25;;;0.65;69.65
59194;BME280;44967;48.598;15.650;2023-02-26T06:26:37;97616.16;;;0.83;69.63
59194;BME280;44967;48.598;15.650;2023-02-26T06:29:03;97615.28;;;0.78;68.84
59194;BME280;44967;48.598;15.650;2023-02-26T06:31:29;97622.22;;;0.74;68.36
59194;BME280;44967;48.598;15.650;2023-02-26T06:33:54;97620.50;;;0.73;68.33
59194;BME280;44967;48.598;15.650;2023-02-26T06:36:20;97615.28;;;0.76;68.67
59194;BME280;44967;48.598;15.650;2023-02-26T06:38:46;97620.47;;;0.79;68.58
59194;BME280;44967;48.598;15.650;2023-02-26T06:41:12;97620.47;;;0.72;67.87
59194;BME280;44967;48.598;15.650;2023-02-26T06:43:38;97624.81;;;0.80;67.90
59194;BME280;44967;48.598;15.650;2023-02-26T06:46:04;97623.06;;;0.81;68.24
59194;BME280;44967;48.598;15.650;2023-02-26T06:48:30;97624.75;;;0.97;67.28
59194;BME280;44967;48.598;15.650;2023-02-26T06:50:56;97634.25;;;1.09;66.90
59194;BME280;44967;48.598;15.650;2023-02-26T06:53:22;97645.53;;;1.09;65.04
59194;BME280;44967;48.598;15.650;2023-02-26T06:55:50;97645.56;;;0.92;64.96
59194;BME280;44967;48.598;15.650;2023-02-26T06:58:16;97655.94;;;1.09;65.96
59194;BME280;44967;48.598;15.650;2023-02-26T07:00:42;97654.16;;;1.16;64.37
59194;BME280;44967;48.598;15.650;2023-02-26T07:03:13;97657.66;;;1.13;63.64
59194;BME280;44967;48.598;15.650;2023-02-26T07:05:39;97665.44;;;1.18;64.44
59194;BME280;44967;48.598;15.650;2023-02-26T07:08:06;97664.56;;;1.13;63.53
59194;BME280;44967;48.598;15.650;2023-02-26T07:10:33;97668.91;;;1.14;64.20
59194;BME280;44967;48.598;15.650;2023-02-26T07:13:00;97663.66;;;1.23;64.29
59194;BME280;44967;48.598;15.650;2023-02-26T07:15:26;97675.84;;;1.18;63.77
59194;BME280;44967;48.598;15.650;2023-02-26T07:17:51;97674.13;;;1.18;62.28
59194;BME280;44967;48.598;15.650;2023-02-26T07:20:17;97683.63;;;1.24;63.90
59194;BME280;44967;48.598;15.650;2023-02-26T07:22:43;97676.69;;;1.15;62.42
59194;BME280;44967;48.598;15.650;2023-02-26T07:25:11;97683.59;;;1.33;63.40
59194;BME280;44967;48.598;15.650;2023-02-26T07:27:37;97678.28;;;1.51;63.94
59194;BME280;44967;48.598;15.650;2023-02-26T07:30:04;97674.84;;;1.49;63.35
59194;BME280;44967;48.598;15.650;2023-02-26T07:32:31;97685.28;;;1.41;62.54
59194;BME280;44967;48.598;15.650;2023-02-26T07:34:56;97678.34;;;1.42;63.21
59194;BME280;44967;48.598;15.650;2023-02-26T07:37:23;97679.22;;;1.39;62.85
59194;BME280;44967;48.598;15.650;2023-02-26T07:39:49;97671.31;;;1.61;63.10
59194;BME280;44967;48.598;15.650;2023-02-26T07:42:15;97679.97;;;1.60;62.71
59194;BME280;44967;48.598;15.650;2023-02-26T07:44:42;97687.84;;;1.54;62.90
59194;BME280;44967;48.598;15.650;2023-02-26T07:47:07;97691.28;;;1.60;63.30
59194;BME280;44967;48.598;15.650;2023-02-26T07:49:33;97699.06;;;1.65;63.11
59194;BME280;44967;48.598;15.650;2023-02-26T07:51:59;97699.00;;;1.77;63.29
59194;BME280;44967;48.598;15.650;2023-02-26T07:54:25;97710.25;;;1.80;63.29
59194;BME280;44967;48.598;15.650;2023-02-26T07:56:51;97708.53;;;1.76;61.96
59194;BME280;44967;48.598;15.650;2023-02-26T07:59:17;97706.84;;;1.66;61.26
59194;BME280;44967;48.598;15.650;2023-02-26T08:01:46;97710.31;;;1.68;62.32
59194;BME280;44967;48.598;15.650;2023-02-26T08:04:11;97718.97;;;1.70;61.52
59194;BME280;44967;48.598;15.650;2023-02-26T08:06:37;97712.91;;;1.71;60.85
59194;BME280;44967;48.598;15.650;2023-02-26T08:09:03;97716.41;;;1.69;62.83
59194;BME280;44967;48.598;15.650;2023-02-26T08:11:30;97726.03;;;1.53;61.71
59194;BME280;44967;48.598;15.650;2023-02-26T08:13:57;97726.03;;;1.42;61.32
59194;BME280;44967;48.598;15.650;2023-02-26T08:16:23;97736.47;;;1.35;61.05
59194;BME280;44967;48.598;15.650;2023-02-26T08:18:49;97730.38;;;1.47;61.73
59194;BME280;44967;48.598;15.650;2023-02-26T08:21:15;97728.56;;;1.62;60.66
59194;BME280;44967;48.598;15.650;2023-02-26T08:23:40;97725.91;;;1.77;62.95
59194;BME280;44967;48.598;15.650;2023-02-26T08:26:08;97742.34;;;1.87;61.32
59194;BME280;44967;48.598;15.650;2023-02-26T08:28:35;97738.16;;;1.57;58.76
59194;BME280;44967;48.598;15.650;2023-02-26T08:31:01;97746.78;;;1.62;59.14
59194;BME280;44967;48.598;15.650;2023-02-26T08:33:27;97736.34;;;1.77;57.91
59194;BME280;44967;48.598;15.650;2023-02-26T08:35:53;97759.78;;;1.73;58.36
59194;BME280;44967;48.598;15.650;2023-02-26T08:38:20;97750.09;;;1.98;59.95
59194;BME280;44967;48.598;15.650;2023-02-26T08:40:48;97746.53;;;2.14;58.99
59194;BME280;44967;48.598;15.650;2023-02-26T08:43:14;97761.41;;;1.90;57.85
59194;BME280;44967;48.598;15.650;2023-02-26T08:45:39;97769.25;;;1.94;58.53
59194;BME280;44967;48.598;15.650;2023-02-26T08:48:05;97771.81;;;2.00;59.33
59194;BME280;44967;48.598;15.650;2023-02-26T08:50:32;97777.75;;;2.21;58.22
59194;BME280;44967;48.598;15.650;2023-02-26T08:52:57;97780.47;;;1.99;56.77
59194;BME280;44967;48.598;15.650;2023-02-26T08:55:23;97783.94;;;2.04;57.61
59194;BME280;44967;48.598;15.650;2023-02-26T08:57:49;97782.97;;;2.24;57.24
59194;BME280;44967;48.598;15.650;2023-02-26T09:00:16;97785.34;;;2.59;57.40
59194;BME280;44967;48.598;15.650;2023-02-26T09:02:43;97790.47;;;2.70;56.82
59194;BME280;44967;48.598;15.650;2023-02-26T09:05:09;97792.34;;;2.50;56.10
59194;BME280;44967;48.598;15.650;2023-02-26T09:07:37;97788.84;;;2.57;55.24
59194;BME280;44967;48.598;15.650;2023-02-26T09:10:06;97803.66;;;2.49;55.47
59194;BME280;44967;48.598;15.650;2023-02-26T09:12:36;97801.97;;;2.45;56.26
59194;BME280;44967;48.598;15.650;2023-02-26T09:15:03;97812.41;;;2.40;55.30
59194;BME280;44967;48.598;15.650;2023-02-26T09:17:29;97807.13;;;2.46;54.17
59194;BME280;44967;48.598;15.650;2023-02-26T09:19:55;97812.47;;;2.28;55.69
59194;BME280;44967;48.598;15.650;2023-02-26T09:22:21;97813.41;;;2.21;54.78
59194;BME280;44967;48.598;15.650;2023-02-26T09:24:47;97814.16;;;2.35;56.58
59194;BME280;44967;48.598;15.650;2023-02-26T09:27:13;97826.34;;;2.34;55.06
59194;BME280;44967;48.598;15.650;2023-02-26T09:29:38;97823.75;;;2.30;56.85
59194;BME280;44967;48.598;15.650;2023-02-26T09:32:04;97829.69;;;2.53;56.24
59194;BME280;44967;48.598;15.650;2023-02-26T09:34:37;97834.16;;;2.34;56.36
59194;BME280;44967;48.598;15.650;2023-02-26T09:37:05;97840.28;;;2.26;56.75
59194;BME280;44967;48.598;15.650;2023-02-26T09:39:32;97847.34;;;2.09;55.71
59194;BME280;44967;48.598;15.650;2023-02-26T09:42:47;97842.94;;;2.14;56.72
59194;BME280;44967;48.598;15.650;2023-02-26T09:44:47;97851.41;;;2.60;60.58
59194;BME280;44967;48.598;15.650;2023-02-26T09:50:00;97843.50;;;2.69;58.15
59194;BME280;44967;48.598;15.650;2023-02-26T09:52:39;97836.44;;;2.88;55.52
59194;BME280;44967;48.598;15.650;2023-02-26T09:55:38;97844.25;;;2.84;55.57
59194;BME280;44967;48.598;15.650;2023-02-26T09:58:21;97846.78;;;3.00;54.26
59194;BME280;44967;48.598;15.650;2023-02-26T10:03:31;97858.22;;;2.77;54.76
59194;BME280;44967;48.598;15.650;2023-02-26T10:08:44;97862.03;;;2.25;56.37
59194;BME280;44967;48.598;15.650;2023-02-26T10:11:20;97866.28;;;2.38;58.02
59194;BME280;44967;48.598;15.650;2023-02-26T10:14:03;97857.59;;;2.37;57.93
59194;BME280;44967;48.598;15.650;2023-02-26T10:16:36;97863.53;;;2.67;56.92
59194;BME280;44967;48.598;15.650;2023-02-26T10:19:07;97877.47;;;2.58;55.26
59194;BME280;44967;48.598;15.650;2023-02-26T10:21:47;97866.06;;;2.74;56.20
59194;BME280;44967;48.598;15.650;2023-02-26T10:24:21;97866.91;;;2.79;55.36
59194;BME280;44967;48.598;15.650;2023-02-26T10:26:54;97855.63;;;2.79;54.32
59194;BME280;44967;48.598;15.650;2023-02-26T10:29:39;97877.13;;;3.10;54.05
59194;BME280;44967;48.598;15.650;2023-02-26T10:32:44;97870.91;;;3.27;55.84
59194;BME280;44967;48.598;15.650;2023-02-26T10:35:14;97884.94;;;3.13;52.74
59194;BME280;44967;48.598;15.650;2023-02-26T10:37:52;97871.75;;;3.29;54.95
59194;BME280;44967;48.598;15.650;2023-02-26T10:40:41;97869.97;;;3.35;55.26
59194;BME280;44967;48.598;15.650;2023-02-26T10:43:18;97876.72;;;3.58;52.25
59194;BME280;44967;48.598;15.650;2023-02-26T10:46:01;97879.47;;;3.40;50.95
59194;BME280;44967;48.598;15.650;2023-02-26T10:51:38;97885.75;;;3.16;49.48
59194;BME280;44967;48.598;15.650;2023-02-26T10:56:57;97884.06;;;3.15;49.59
59194;BME280;44967;48.598;15.650;2023-02-26T10:59:23;97883.22;;;3.12;49.18
59194;BME280;44967;48.598;15.650;2023-02-26T11:01:50;97888.91;;;3.59;51.77
59194;BME280;44967;48.598;15.650;2023-02-26T11:04:20;97886.44;;;3.43;49.35
59194;BME280;44967;48.598;15.650;2023-02-26T11:06:52;97890.44;;;3.75;51.57
59194;BME280;44967;48.598;15.650;2023-02-26T11:09:21;97888.56;;;3.88;48.25
59194;BME280;44967;48.598;15.650;2023-02-26T11:14:37;97908.78;;;4.49;46.95
59194;BME280;44967;48.598;15.650;2023-02-26T11:17:10;97896.38;;;4.63;48.64
59194;BME280;44967;48.598;15.650;2023-02-26T11:22:53;97923.78;;;4.36;49.77
59194;BME280;44967;48.598;15.650;2023-02-26T11:25:24;97923.34;;;3.96;50.07
59194;BME280;44967;48.598;15.650;2023-02-26T11:27:59;97929.16;;;3.32;49.59
59194;BME280;44967;48.598;15.650;2023-02-26T11:30:31;97923.66;;;3.66;50.31
59194;BME280;44967;48.598;15.650;2023-02-26T11:33:04;97920.94;;;3.76;50.61
59194;BME280;44967;48.598;15.650;2023-02-26T11:35:31;97923.72;;;3.57;50.46
59194;BME280;44967;48.598;15.650;2023-02-26T11:37:59;97935.38;;;3.19;51.04
59194;BME280;44967;48.598;15.650;2023-02-26T11:40:38;97932.81;;;3.10;51.76
59194;BME280;44967;48.598;15.650;2023-02-26T11:43:09;97935.50;;;2.98;50.67
59194;BME280;44967;48.598;15.650;2023-02-26T11:45:41;97933.72;;;3.05;51.46
59194;BME280;44967;48.598;15.650;2023-02-26T11:48:12;97936.38;;;2.97;51.29
59194;BME280;44967;48.598;15.650;2023-02-26T11:50:43;97933.75;;;2.99;51.65
59194;BME280;44967;48.598;15.650;2023-02-26T11:53:24;97924.06;;;3.13;52.06
59194;BME280;44967;48.598;15.650;2023-02-26T11:55:52;97924.53;;;3.66;51.06
59194;BME280;44967;48.598;15.650;2023-02-26T11:58:27;97925.03;;;4.00;48.72
59194;BME280;44967;48.598;15.650;2023-02-26T12:00:57;97922.13;;;4.27;48.86
59194;BME280;44967;48.598;15.650;2023-02-26T12:03:27;97924.72;;;4.31;47.99
59194;BME280;44967;48.598;15.650;2023-02-26T12:05:54;97914.75;;;3.87;46.86
59194;BME280;44967;48.598;15.650;2023-02-26T12:08:32;97925.47;;;3.56;46.69
59194;BME280;44967;48.598;15.650;2023-02-26T12:19:39;97920.69;;;3.03;47.93
59194;BME280;44967;48.598;15.650;2023-02-26T12:27:57;97919.91;;;3.93;47.49
59194;BME280;44967;48.598;15.650;2023-02-26T12:31:09;97923.50;;;3.79;49.09
59194;BME280;44967;48.598;15.650;2023-02-26T12:34:12;97932.13;;;3.89;50.28
59194;BME280;44967;48.598;15.650;2023-02-26T12:48:45;97939.75;;;3.13;49.41
59194;BME280;44967;48.598;15.650;2023-02-26T12:57:25;97948.72;;;3.87;47.74
59194;BME280;44967;48.598;15.650;2023-02-26T13:00:17;97944.22;;;4.01;47.38
59194;BME280;44967;48.598;15.650;2023-02-26T13:08:33;97948.72;;;3.84;45.91
59194;BME280;44967;48.598;15.650;2023-02-26T13:11:20;97947.16;;;3.64;45.94
59194;BME280;44967;48.598;15.650;2023-02-26T13:16:34;97937.34;;;3.91;47.24
59194;BME280;44967;48.598;15.650;2023-02-26T13:21:45;97956.44;;;3.96;46.87
59194;BME280;44967;48.598;15.650;2023-02-26T13:24:35;97964.09;;;4.17;48.69
59194;BME280;44967;48.598;15.650;2023-02-26T13:27:04;97977.72;;;3.56;49.35
59194;BME280;44967;48.598;15.650;2023-02-26T13:29:36;97976.09;;;3.43;50.49
59194;BME280;44967;48.598;15.650;2023-02-26T13:32:12;97978.84;;;3.22;49.49
59194;BME280;44967;48.598;15.650;2023-02-26T13:34:49;97982.38;;;3.15;49.09
59194;BME280;44967;48.598;15.650;2023-02-26T13:37:29;97990.09;;;3.28;50.68
59194;BME280;44967;48.598;15.650;2023-02-26T13:48:58;98013.66;;;3.21;51.17
59194;BME280;44967;48.598;15.650;2023-02-26T13:51:40;98004.94;;;3.25;51.15
59194;BME280;44967;48.598;15.650;2023-02-26T14:01:55;98006.59;;;3.38;48.65
59194;BME280;44967;48.598;15.650;2023-02-26T14:04:25;98005.78;;;3.28;47.26
59194;BME280;44967;48.598;15.650;2023-02-26T14:07:12;97998.72;;;3.43;50.03
59194;BME280;44967;48.598;15.650;2023-02-26T14:10:14;98015.41;;;3.23;51.05
59194;BME280;44967;48.598;15.650;2023-02-26T14:13:02;98012.72;;;3.36;51.26
59194;BME280;44967;48.598;15.650;2023-02-26T14:16:09;98008.47;;;3.13;50.05
59194;BME280;44967;48.598;15.650;2023-02-26T14:24:23;98042.47;;;3.06;54.00
59194;BME280;44967;48.598;15.650;2023-02-26T14:29:55;98047.94;;;2.41;61.23
59194;BME280;44967;48.598;15.650;2023-02-26T14:35:05;98053.22;;;1.81;67.79
59194;BME280;44967;48.598;15.650;2023-02-26T14:37:34;98045.41;;;1.81;66.46
59194;BME280;44967;48.598;15.650;2023-02-26T14:47:46;98040.19;;;1.94;62.59
59194;BME280;44967;48.598;15.650;2023-02-26T14:50:18;98042.78;;;1.92;62.21
59194;BME280;44967;48.598;15.650;2023-02-26T14:56:10;98049.75;;;1.93;61.77
59194;BME280;44967;48.598;15.650;2023-02-26T14:59:00;98058.44;;;1.89;62.10
59194;BME280;44967;48.598;15.650;2023-02-26T15:01:43;98060.16;;;2.01;62.45
59194;BME280;44967;48.598;15.650;2023-02-26T15:09:37;98073.88;;;2.83;61.92
59194;BME280;44967;48.598;15.650;2023-02-26T15:12:16;98079.09;;;2.81;59.76
59194;BME280;44967;48.598;15.650;2023-02-26T15:25:33;98091.38;;;2.38;61.33
59194;BME280;44967;48.598;15.650;2023-02-26T15:28:02;98096.59;;;2.48;59.76
59194;BME280;44967;48.598;15.650;2023-02-26T15:30:30;98093.94;;;2.54;61.38
59194;BME280;44967;48.598;15.650;2023-02-26T15:32:58;98100.03;;;2.57;60.79
59194;BME280;44967;48.598;15.650;2023-02-26T15:35:28;98093.06;;;2.65;61.02
59194;BME280;44967;48.598;15.650;2023-02-26T15:37:58;98102.63;;;2.63;59.56
59194;BME280;44967;48.598;15.650;2023-02-26T15:40:29;98083.50;;;2.64;60.75
59194;BME280;44967;48.598;15.650;2023-02-26T15:42:58;98079.19;;;2.53;60.86
59194;BME280;44967;48.598;15.650;2023-02-26T15:45:30;98078.31;;;2.46;60.64